createdAt,value
2019-03-25T00:00:14.364Z,5.98
2019-03-25T00:01:14.277Z,6.06
2019-03-25T00:02:14.228Z,5.93
2019-03-25T00:03:14.225Z,5.93
2019-03-25T00:04:14.201Z,5.88
2019-03-25T00:05:14.220Z,5.93
2019-03-25T00:06:14.232Z,5.98
2019-03-25T00:07:14.165Z,6.08
2019-03-25T00:08:14.156Z,5.98
2019-03-25T00:09:14.151Z,6.05
2019-03-25T00:10:14.142Z,6.02
2019-03-25T00:11:14.143Z,6.00
2019-03-25T00:12:14.116Z,5.90
2019-03-25T00:13:14.096Z,6.02
2019-03-25T00:14:14.091Z,6.02
2019-03-25T00:15:14.082Z,6.08
2019-03-25T00:16:14.099Z,6.00
2019-03-25T00:17:14.058Z,6.00
2019-03-25T00:18:14.045Z,6.08
2019-03-25T00:19:14.040Z,6.03
2019-03-25T00:20:14.017Z,6.11
2019-03-25T00:21:14.042Z,5.98
2019-03-25T00:22:13.998Z,5.95
2019-03-25T00:23:13.983Z,5.97
2019-03-25T00:24:13.971Z,5.90
2019-03-25T00:25:13.965Z,5.98
2019-03-25T00:26:14.018Z,6.06
2019-03-25T00:27:13.951Z,6.00
2019-03-25T00:28:14.010Z,6.03
2019-03-25T00:29:13.920Z,6.11
2019-03-25T00:30:13.909Z,6.09
2019-03-25T00:31:13.915Z,6.05
2019-03-25T00:32:13.883Z,6.09
2019-03-25T00:33:13.885Z,6.12
2019-03-25T00:34:13.856Z,6.06
2019-03-25T00:35:13.845Z,5.98
2019-03-25T00:36:13.879Z,6.06
2019-03-25T00:37:13.838Z,6.00
2019-03-25T00:38:13.822Z,6.06
2019-03-25T00:39:13.800Z,6.06
2019-03-25T00:40:13.795Z,6.09
2019-03-25T00:41:13.810Z,6.12
2019-03-25T00:42:13.779Z,6.06
2019-03-25T00:43:13.773Z,6.16
2019-03-25T00:44:13.744Z,6.00
2019-03-25T00:45:13.738Z,5.94
2019-03-25T00:46:13.756Z,5.98
2019-03-25T00:47:13.713Z,6.05
2019-03-25T00:48:13.698Z,6.06
2019-03-25T00:49:13.695Z,5.98
2019-03-25T00:50:13.678Z,6.12
2019-03-25T00:51:13.666Z,6.09
2019-03-25T00:52:13.686Z,6.03
2019-03-25T00:53:13.645Z,6.05
2019-03-25T00:54:13.651Z,6.19
2019-03-25T00:55:13.623Z,6.13
2019-03-25T00:56:13.609Z,6.18
2019-03-25T00:57:13.627Z,6.19
2019-03-25T00:58:13.593Z,6.15
2019-03-25T00:59:13.574Z,6.12
2019-03-25T01:00:13.575Z,6.09
2019-03-25T01:01:13.552Z,6.08
2019-03-25T01:02:13.570Z,6.15
2019-03-25T01:03:13.539Z,6.16
2019-03-25T01:04:13.517Z,6.27
2019-03-25T01:05:13.511Z,6.12
2019-03-25T01:06:13.493Z,6.19
2019-03-25T01:07:13.520Z,6.24
2019-03-25T01:08:13.475Z,6.18
2019-03-25T01:09:13.461Z,6.16
2019-03-25T01:10:13.448Z,6.19
2019-03-25T01:11:13.445Z,6.28
2019-03-25T01:12:13.463Z,6.25
2019-03-25T01:13:13.418Z,6.16
2019-03-25T01:14:13.404Z,6.40
2019-03-25T01:15:13.392Z,6.28
2019-03-25T01:16:13.387Z,6.34
2019-03-25T01:17:13.410Z,6.31
2019-03-25T01:18:17.110Z,6.28
2019-03-25T01:19:13.347Z,6.31
2019-03-25T01:20:13.376Z,6.31
2019-03-25T01:21:13.325Z,6.34
2019-03-25T01:22:13.338Z,6.34
2019-03-25T01:23:13.299Z,6.32
2019-03-25T01:24:13.290Z,6.31
2019-03-25T01:25:13.279Z,6.35
2019-03-25T01:26:13.270Z,6.35
2019-03-25T01:27:13.282Z,6.31
2019-03-25T01:28:13.271Z,6.42
2019-03-25T01:29:13.236Z,6.31
2019-03-25T01:30:13.219Z,6.38
2019-03-25T01:31:13.211Z,6.35
2019-03-25T01:32:13.197Z,6.35
2019-03-25T01:33:13.216Z,6.34
2019-03-25T01:34:13.175Z,6.31
2019-03-25T01:35:13.164Z,6.37
2019-03-25T01:36:13.151Z,6.37
2019-03-25T01:37:13.177Z,6.31
2019-03-25T01:38:13.150Z,6.37
2019-03-25T01:39:13.122Z,6.27
2019-03-25T01:40:13.104Z,6.37
2019-03-25T01:41:13.100Z,6.27
2019-03-25T01:42:13.082Z,6.25
2019-03-25T01:43:13.101Z,6.28
2019-03-25T01:44:13.058Z,6.28
2019-03-25T01:45:13.048Z,6.31
2019-03-25T01:46:13.037Z,6.31
2019-03-25T01:47:13.027Z,6.40
2019-03-25T01:48:13.037Z,6.35
2019-03-25T01:49:13.002Z,6.40
2019-03-25T01:50:12.991Z,6.37
2019-03-25T01:51:12.979Z,6.43
2019-03-25T01:52:12.966Z,6.32
2019-03-25T01:53:12.984Z,6.42
2019-03-25T01:54:12.945Z,6.37
2019-03-25T01:55:13.854Z,6.35
2019-03-25T01:56:12.926Z,6.34
2019-03-25T01:57:12.915Z,6.38
2019-03-25T01:58:12.957Z,6.34
2019-03-25T01:59:12.886Z,6.32
2019-03-25T02:00:12.907Z,6.38
2019-03-25T02:01:12.870Z,6.31
2019-03-25T02:02:12.852Z,6.35
2019-03-25T02:03:12.841Z,6.43
2019-03-25T02:04:12.864Z,6.40
2019-03-25T02:05:12.834Z,6.30
2019-03-25T02:06:12.807Z,6.28
2019-03-25T02:07:12.800Z,6.28
2019-03-25T02:08:12.787Z,6.31
2019-03-25T02:09:12.797Z,6.37
2019-03-25T02:10:12.768Z,6.37
2019-03-25T02:11:12.749Z,6.38
2019-03-25T02:12:12.739Z,6.19
2019-03-25T02:13:12.746Z,6.30
2019-03-25T02:14:12.749Z,6.37
2019-03-25T02:15:12.715Z,6.32
2019-03-25T02:16:12.695Z,6.38
2019-03-25T02:17:12.684Z,6.30
2019-03-25T02:18:12.679Z,6.32
2019-03-25T02:19:12.684Z,6.38
2019-03-25T02:20:12.655Z,6.28
2019-03-25T02:21:12.637Z,6.31
2019-03-25T02:22:12.642Z,6.34
2019-03-25T02:23:12.681Z,6.43
2019-03-25T02:24:12.696Z,6.32
2019-03-25T02:25:12.595Z,6.25
2019-03-25T02:26:12.579Z,6.34
2019-03-25T02:27:12.568Z,6.31
2019-03-25T02:28:12.565Z,6.34
2019-03-25T02:29:12.590Z,6.30
2019-03-25T02:30:12.538Z,6.40
2019-03-25T02:31:12.530Z,6.28
2019-03-25T02:32:12.530Z,6.42
2019-03-25T02:33:12.510Z,6.46
2019-03-25T02:34:12.494Z,6.35
2019-03-25T02:35:12.500Z,6.32
2019-03-25T02:36:12.466Z,6.31
2019-03-25T02:37:12.463Z,6.25
2019-03-25T02:38:12.452Z,6.24
2019-03-25T02:39:12.432Z,6.30
2019-03-25T02:40:12.480Z,6.28
2019-03-25T02:41:12.417Z,6.28
2019-03-25T02:42:12.406Z,6.27
2019-03-25T02:43:12.399Z,6.32
2019-03-25T02:44:12.380Z,6.38
2019-03-25T02:45:12.396Z,6.31
2019-03-25T02:46:12.361Z,6.27
2019-03-25T02:47:12.344Z,6.35
2019-03-25T02:48:12.331Z,6.42
2019-03-25T02:49:12.328Z,6.34
2019-03-25T02:50:12.347Z,6.28
2019-03-25T02:51:12.327Z,6.32
2019-03-25T02:52:12.296Z,6.32
2019-03-25T02:53:12.279Z,6.46
2019-03-25T02:54:12.278Z,6.46
2019-03-25T02:55:12.253Z,6.53
2019-03-25T02:56:12.275Z,6.34
2019-03-25T02:57:12.234Z,6.45
2019-03-25T02:58:12.233Z,6.42
2019-03-25T02:59:12.208Z,6.38
2019-03-25T03:00:12.207Z,6.43
2019-03-25T03:01:12.216Z,6.42
2019-03-25T03:02:12.195Z,6.49
2019-03-25T03:03:12.237Z,6.46
2019-03-25T03:04:12.153Z,6.49
2019-03-25T03:05:12.136Z,6.46
2019-03-25T03:06:12.163Z,6.34
2019-03-25T03:07:12.113Z,6.42
2019-03-25T03:08:12.107Z,6.38
2019-03-25T03:09:12.094Z,6.43
2019-03-25T03:10:12.086Z,6.35
2019-03-25T03:11:12.114Z,6.35
2019-03-25T03:12:12.096Z,6.50
2019-03-25T03:13:12.046Z,6.37
2019-03-25T03:14:15.133Z,6.35
2019-03-25T03:15:12.020Z,6.31
2019-03-25T03:16:12.033Z,6.16
2019-03-25T03:17:12.027Z,6.19
2019-03-25T03:18:11.993Z,6.11
2019-03-25T03:19:11.980Z,5.95
2019-03-25T03:20:11.988Z,5.98
2019-03-25T03:21:11.981Z,5.94
2019-03-25T03:22:11.949Z,5.85
2019-03-25T03:23:11.930Z,5.88
2019-03-25T03:24:11.918Z,5.95
2019-03-25T03:25:11.909Z,5.80
2019-03-25T03:26:11.928Z,5.87
2019-03-25T03:27:11.888Z,5.77
2019-03-25T03:28:11.880Z,5.72
2019-03-25T03:29:11.873Z,5.79
2019-03-25T03:30:11.860Z,5.72
2019-03-25T03:31:11.862Z,5.61
2019-03-25T03:32:11.861Z,5.66
2019-03-25T03:33:11.833Z,5.72
2019-03-25T03:34:11.815Z,5.69
2019-03-25T03:35:11.798Z,5.58
2019-03-25T03:36:11.793Z,5.61
2019-03-25T03:37:11.804Z,5.57
2019-03-25T03:38:11.763Z,5.58
2019-03-25T03:39:11.757Z,5.54
2019-03-25T03:40:11.738Z,5.48
2019-03-25T03:41:11.732Z,5.54
2019-03-25T03:42:11.748Z,5.55
2019-03-25T03:43:11.708Z,5.50
2019-03-25T03:44:11.721Z,5.43
2019-03-25T03:45:11.684Z,5.48
2019-03-25T03:46:11.672Z,5.50
2019-03-25T03:47:11.699Z,5.58
2019-03-25T03:48:11.647Z,5.33
2019-03-25T03:49:11.638Z,5.44
2019-03-25T03:50:13.969Z,5.36
2019-03-25T03:51:11.617Z,5.36
2019-03-25T03:52:11.618Z,5.32
2019-03-25T03:53:11.617Z,5.36
2019-03-25T03:54:11.584Z,5.30
2019-03-25T03:55:11.577Z,5.37
2019-03-25T03:56:13.895Z,5.43
2019-03-25T03:57:11.547Z,5.39
2019-03-25T03:58:11.559Z,5.33
2019-03-25T03:59:11.550Z,5.33
2019-03-25T04:00:11.514Z,5.32
2019-03-25T04:01:11.505Z,5.29
2019-03-25T04:02:11.490Z,5.30
2019-03-25T04:03:11.483Z,5.27
2019-03-25T04:04:11.498Z,5.29
2019-03-25T04:05:11.458Z,5.27
2019-03-25T04:06:11.461Z,5.25
2019-03-25T04:07:11.446Z,5.25
2019-03-25T04:08:11.464Z,5.19
2019-03-25T04:09:11.440Z,5.29
2019-03-25T04:10:11.410Z,5.15
2019-03-25T04:11:11.394Z,5.27
2019-03-25T04:12:11.381Z,5.16
2019-03-25T04:13:11.380Z,5.07
2019-03-25T04:14:11.399Z,5.14
2019-03-25T04:15:11.416Z,5.12
2019-03-25T04:16:11.349Z,5.07
2019-03-25T04:17:11.372Z,5.07
2019-03-25T04:18:11.322Z,5.06
2019-03-25T04:19:11.333Z,4.96
2019-03-25T04:20:11.298Z,4.91
2019-03-25T04:21:11.285Z,4.97
2019-03-25T04:22:11.285Z,4.94
2019-03-25T04:23:11.273Z,5.00
2019-03-25T04:24:11.305Z,4.91
2019-03-25T04:25:11.243Z,5.11
2019-03-25T04:26:11.231Z,4.98
2019-03-25T04:27:11.225Z,4.97
2019-03-25T04:28:11.254Z,4.98
2019-03-25T04:29:11.232Z,4.77
2019-03-25T04:30:11.219Z,4.94
2019-03-25T04:31:11.184Z,4.91
2019-03-25T04:32:11.167Z,4.88
2019-03-25T04:33:11.153Z,4.96
2019-03-25T04:34:11.170Z,4.85
2019-03-25T04:35:11.139Z,4.93
2019-03-25T04:36:11.121Z,4.94
2019-03-25T04:37:11.114Z,4.82
2019-03-25T04:38:11.101Z,4.83
2019-03-25T04:39:11.116Z,4.82
2019-03-25T04:40:11.077Z,4.88
2019-03-25T04:41:11.067Z,4.93
2019-03-25T04:42:11.067Z,4.82
2019-03-25T04:43:11.052Z,4.77
2019-03-25T04:44:11.057Z,4.85
2019-03-25T04:45:11.052Z,4.83
2019-03-25T04:46:11.012Z,4.75
2019-03-25T04:47:11.000Z,4.77
2019-03-25T04:48:11.012Z,4.74
2019-03-25T04:49:10.980Z,4.82
2019-03-25T04:50:10.992Z,4.85
2019-03-25T04:51:10.954Z,4.67
2019-03-25T04:52:10.944Z,4.79
2019-03-25T04:53:10.943Z,4.74
2019-03-25T04:54:10.927Z,4.78
2019-03-25T04:55:10.946Z,4.71
2019-03-25T04:56:10.913Z,4.66
2019-03-25T04:57:10.899Z,4.78
2019-03-25T04:58:10.901Z,4.67
2019-03-25T04:59:10.872Z,4.78
2019-03-25T05:00:10.886Z,4.77
2019-03-25T05:01:10.857Z,4.71
2019-03-25T05:02:10.835Z,4.74
2019-03-25T05:03:10.830Z,4.86
2019-03-25T05:04:10.815Z,4.77
2019-03-25T05:05:10.828Z,4.78
2019-03-25T05:06:10.800Z,4.78
2019-03-25T05:07:10.804Z,4.69
2019-03-25T05:08:10.779Z,4.64
2019-03-25T05:09:10.768Z,4.69
2019-03-25T05:10:10.779Z,4.66
2019-03-25T05:11:10.739Z,4.71
2019-03-25T05:12:10.731Z,4.75
2019-03-25T05:13:10.717Z,4.77
2019-03-25T05:14:10.707Z,4.61
2019-03-25T05:15:10.699Z,4.74
2019-03-25T05:16:10.717Z,4.74
2019-03-25T05:17:10.674Z,4.77
2019-03-25T05:18:10.662Z,4.60
2019-03-25T05:19:10.668Z,4.74
2019-03-25T05:20:10.645Z,4.74
2019-03-25T05:21:10.659Z,4.57
2019-03-25T05:22:11.187Z,4.71
2019-03-25T05:23:10.621Z,4.67
2019-03-25T05:24:10.602Z,4.63
2019-03-25T05:25:10.587Z,4.75
2019-03-25T05:26:10.598Z,4.63
2019-03-25T05:27:10.565Z,4.72
2019-03-25T05:28:10.559Z,4.63
2019-03-25T05:29:10.556Z,4.56
2019-03-25T05:30:10.536Z,4.67
2019-03-25T05:31:10.545Z,4.72
2019-03-25T05:32:10.511Z,4.69
2019-03-25T05:33:10.500Z,4.60
2019-03-25T05:34:10.488Z,4.75
2019-03-25T05:35:10.537Z,4.66
2019-03-25T05:36:10.492Z,4.60
2019-03-25T05:37:10.461Z,4.72
2019-03-25T05:38:10.447Z,4.67
2019-03-25T05:39:10.439Z,4.63
2019-03-25T05:40:10.425Z,4.71
2019-03-25T05:41:10.441Z,4.72
2019-03-25T05:42:10.433Z,4.79
2019-03-25T05:43:10.395Z,4.74
2019-03-25T05:44:10.385Z,4.72
2019-03-25T05:45:10.369Z,4.67
2019-03-25T05:46:10.357Z,4.86
2019-03-25T05:47:10.375Z,4.69
2019-03-25T05:48:10.342Z,4.71
2019-03-25T05:49:10.327Z,4.67
2019-03-25T05:50:10.328Z,4.69
2019-03-25T05:51:10.308Z,4.82
2019-03-25T05:52:10.335Z,4.86
2019-03-25T05:53:10.282Z,4.66
2019-03-25T05:54:10.270Z,4.71
2019-03-25T05:55:10.261Z,4.64
2019-03-25T05:56:10.249Z,4.45
2019-03-25T05:57:10.262Z,4.49
2019-03-25T05:58:10.231Z,4.56
2019-03-25T05:59:10.218Z,4.45
2019-03-25T06:00:10.220Z,4.64
2019-03-25T06:01:10.200Z,4.45
2019-03-25T06:02:10.213Z,4.53
2019-03-25T06:03:10.181Z,4.53
2019-03-25T06:04:10.167Z,4.46
2019-03-25T06:05:10.154Z,4.51
2019-03-25T06:06:10.143Z,4.54
2019-03-25T06:07:10.159Z,4.63
2019-03-25T06:08:10.122Z,4.60
2019-03-25T06:09:10.115Z,4.64
2019-03-25T06:10:10.124Z,4.63
2019-03-25T06:11:10.090Z,4.71
2019-03-25T06:12:10.162Z,4.71
2019-03-25T06:13:10.096Z,4.71
2019-03-25T06:14:10.063Z,4.64
2019-03-25T06:15:10.114Z,4.77
2019-03-25T06:16:10.037Z,4.69
2019-03-25T06:17:10.024Z,4.67
2019-03-25T06:18:10.124Z,4.85
2019-03-25T06:19:10.005Z,4.69
2019-03-25T06:20:09.990Z,4.74
2019-03-25T06:21:09.981Z,4.96
2019-03-25T06:22:09.969Z,4.89
2019-03-25T06:23:09.989Z,4.93
2019-03-25T06:24:09.946Z,4.83
2019-03-25T06:25:09.984Z,4.96
2019-03-25T06:26:09.970Z,4.88
2019-03-25T06:27:14.365Z,4.94
2019-03-25T06:28:09.950Z,5.04
2019-03-25T06:29:09.892Z,4.88
2019-03-25T06:30:09.890Z,5.07
2019-03-25T06:31:09.877Z,5.06
2019-03-25T06:32:09.870Z,5.00
2019-03-25T06:33:12.717Z,5.01
2019-03-25T06:34:09.841Z,5.11
2019-03-25T06:35:09.832Z,5.01
2019-03-25T06:36:09.816Z,5.11
2019-03-25T06:37:09.803Z,5.16
2019-03-25T06:38:09.825Z,5.07
2019-03-25T06:39:09.785Z,5.18
2019-03-25T06:40:09.790Z,5.12
2019-03-25T06:41:09.761Z,5.30
2019-03-25T06:42:09.750Z,5.24
2019-03-25T06:43:09.742Z,5.22
2019-03-25T06:44:09.755Z,5.32
2019-03-25T06:45:09.723Z,5.33
2019-03-25T06:46:09.788Z,5.21
2019-03-25T06:47:09.712Z,5.33
2019-03-25T06:48:09.695Z,5.29
2019-03-25T06:49:09.699Z,5.27
2019-03-25T06:50:09.676Z,5.21
2019-03-25T06:51:09.651Z,5.37
2019-03-25T06:52:09.650Z,5.41
2019-03-25T06:53:09.631Z,5.43
2019-03-25T06:54:09.660Z,5.43
2019-03-25T06:55:09.619Z,5.50
2019-03-25T06:56:09.595Z,5.51
2019-03-25T06:57:09.585Z,5.50
2019-03-25T06:58:09.577Z,5.54
2019-03-25T06:59:09.586Z,5.52
2019-03-25T07:00:09.561Z,5.41
2019-03-25T07:01:09.539Z,5.47
2019-03-25T07:02:09.527Z,5.44
2019-03-25T07:03:09.516Z,5.33
2019-03-25T07:04:09.535Z,5.33
2019-03-25T07:05:09.707Z,5.47
2019-03-25T07:06:09.488Z,5.50
2019-03-25T07:07:09.472Z,5.48
2019-03-25T07:08:09.460Z,5.52
2019-03-25T07:09:09.449Z,5.34
2019-03-25T07:10:09.463Z,5.43
2019-03-25T07:11:09.436Z,5.39
2019-03-25T07:12:09.415Z,5.41
2019-03-25T07:13:09.416Z,5.50
2019-03-25T07:14:09.398Z,5.50
2019-03-25T07:15:09.412Z,5.48
2019-03-25T07:16:09.376Z,5.37
2019-03-25T07:17:09.361Z,5.43
2019-03-25T07:18:09.356Z,5.41
2019-03-25T07:19:09.342Z,5.48
2019-03-25T07:20:09.330Z,5.52
2019-03-25T07:21:09.343Z,5.43
2019-03-25T07:22:09.303Z,5.54
2019-03-25T07:23:09.307Z,5.57
2019-03-25T07:24:09.280Z,5.55
2019-03-25T07:25:09.311Z,5.61
2019-03-25T07:26:09.279Z,5.62
2019-03-25T07:27:09.250Z,5.66
2019-03-25T07:28:09.238Z,5.67
2019-03-25T07:29:09.224Z,5.70
2019-03-25T07:30:11.298Z,5.73
2019-03-25T07:31:09.233Z,5.67
2019-03-25T07:32:09.224Z,5.73
2019-03-25T07:33:09.184Z,5.80
2019-03-25T07:34:09.172Z,5.94
2019-03-25T07:35:09.159Z,5.77
2019-03-25T07:36:09.168Z,5.79
2019-03-25T07:37:09.138Z,5.85
2019-03-25T07:38:09.123Z,5.84
2019-03-25T07:39:09.120Z,5.95
2019-03-25T07:40:09.109Z,5.87
2019-03-25T07:41:09.134Z,6.00
2019-03-25T07:42:09.077Z,5.94
2019-03-25T07:43:09.069Z,5.88
2019-03-25T07:44:09.054Z,5.85
2019-03-25T07:45:09.046Z,5.90
2019-03-25T07:46:09.063Z,5.88
2019-03-25T07:47:09.024Z,5.76
2019-03-25T07:48:09.016Z,5.88
2019-03-25T07:49:09.002Z,5.80
2019-03-25T07:50:08.988Z,5.70
2019-03-25T07:51:09.020Z,5.67
2019-03-25T07:52:08.971Z,5.69
2019-03-25T07:53:08.956Z,5.58
2019-03-25T07:54:08.950Z,5.51
2019-03-25T07:55:08.940Z,5.62
2019-03-25T07:56:08.923Z,5.57
2019-03-25T07:57:08.935Z,5.40
2019-03-25T07:58:08.908Z,5.40
2019-03-25T07:59:08.904Z,5.39
2019-03-25T08:00:13.439Z,5.18
2019-03-25T08:01:09.904Z,5.19
2019-03-25T08:02:08.895Z,5.14
2019-03-25T08:03:08.847Z,5.09
2019-03-25T08:04:08.838Z,5.04
2019-03-25T08:05:08.872Z,5.06
2019-03-25T08:06:08.816Z,5.09
2019-03-25T08:07:08.831Z,5.19
2019-03-25T08:08:08.800Z,5.15
2019-03-25T08:09:08.787Z,5.18
2019-03-25T08:10:08.780Z,5.22
2019-03-25T08:11:08.762Z,5.21
2019-03-25T08:12:08.782Z,5.11
2019-03-25T08:13:08.768Z,5.22
2019-03-25T08:14:08.825Z,5.03
2019-03-25T08:15:08.721Z,5.22
2019-03-25T08:16:08.707Z,5.00
2019-03-25T08:17:08.716Z,4.94
2019-03-25T08:18:08.713Z,4.91
2019-03-25T08:19:08.682Z,4.89
2019-03-25T08:20:08.665Z,4.85
2019-03-25T08:21:08.649Z,4.86
2019-03-25T08:22:08.647Z,4.83
2019-03-25T08:23:08.652Z,4.82
2019-03-25T08:24:08.619Z,4.77
2019-03-25T08:25:08.613Z,4.89
2019-03-25T08:26:08.608Z,4.86
2019-03-25T08:27:08.600Z,4.82
2019-03-25T08:28:08.611Z,4.88
2019-03-25T08:29:08.562Z,5.04
2019-03-25T08:30:08.552Z,5.04
2019-03-25T08:31:08.544Z,5.07
2019-03-25T08:32:08.529Z,4.96
2019-03-25T08:33:08.542Z,5.04
2019-03-25T08:34:08.516Z,5.15
2019-03-25T08:35:08.498Z,5.06
2019-03-25T08:36:08.486Z,5.06
2019-03-25T08:37:08.474Z,5.15
2019-03-25T08:38:08.507Z,5.29
2019-03-25T08:39:08.514Z,5.34
2019-03-25T08:40:08.449Z,5.34
2019-03-25T08:41:08.445Z,5.25
2019-03-25T08:42:08.482Z,5.30
2019-03-25T08:43:08.412Z,5.44
2019-03-25T08:44:08.434Z,5.50
2019-03-25T08:45:08.390Z,5.52
2019-03-25T08:46:08.380Z,5.65
2019-03-25T08:47:08.369Z,5.69
2019-03-25T08:48:08.389Z,5.69
2019-03-25T08:49:08.351Z,5.80
2019-03-25T08:50:08.341Z,5.76
2019-03-25T08:51:08.321Z,5.97
2019-03-25T08:52:08.311Z,5.98
2019-03-25T08:53:08.331Z,5.98
2019-03-25T08:54:08.300Z,5.94
2019-03-25T08:55:08.282Z,6.05
2019-03-25T08:56:08.271Z,6.09
2019-03-25T08:57:08.263Z,6.11
2019-03-25T08:58:12.296Z,6.13
2019-03-25T08:59:08.267Z,6.25
2019-03-25T09:00:08.228Z,6.38
2019-03-25T09:01:08.215Z,6.35
2019-03-25T09:02:08.220Z,6.34
2019-03-25T09:03:08.210Z,6.42
2019-03-25T09:04:08.206Z,6.56
2019-03-25T09:05:08.172Z,6.60
2019-03-25T09:06:08.171Z,6.57
2019-03-25T09:07:08.149Z,6.56
2019-03-25T09:08:08.140Z,6.74
2019-03-25T09:09:08.146Z,6.78
2019-03-25T09:10:08.117Z,6.83
2019-03-25T09:11:08.111Z,6.74
2019-03-25T09:12:08.101Z,6.79
2019-03-25T09:13:08.084Z,6.92
2019-03-25T09:14:08.101Z,6.86
2019-03-25T09:15:08.064Z,6.82
2019-03-25T09:16:08.047Z,6.86
2019-03-25T09:17:08.053Z,6.89
2019-03-25T09:18:08.027Z,7.00
2019-03-25T09:19:08.014Z,7.10
2019-03-25T09:20:08.027Z,7.18
2019-03-25T09:21:07.999Z,7.07
2019-03-25T09:22:07.998Z,7.03
2019-03-25T09:23:07.981Z,7.07
2019-03-25T09:24:07.986Z,7.16
2019-03-25T09:25:07.972Z,7.29
2019-03-25T09:26:07.943Z,7.21
2019-03-25T09:27:07.930Z,7.25
2019-03-25T09:28:07.926Z,7.22
2019-03-25T09:29:07.928Z,7.26
2019-03-25T09:30:07.886Z,7.29
2019-03-25T09:31:07.875Z,7.28
2019-03-25T09:32:07.871Z,7.25
2019-03-25T09:33:07.855Z,7.08
2019-03-25T09:34:07.861Z,6.99
2019-03-25T09:35:07.868Z,6.97
2019-03-25T09:36:07.817Z,6.81
2019-03-25T09:37:07.818Z,6.67
2019-03-25T09:38:07.807Z,6.45
2019-03-25T09:39:07.795Z,6.32
2019-03-25T09:40:07.801Z,6.00
2019-03-25T09:41:07.768Z,5.66
2019-03-25T09:42:07.754Z,5.58
2019-03-25T09:43:07.751Z,5.50
2019-03-25T09:44:07.730Z,5.50
2019-03-25T09:45:07.757Z,5.59
2019-03-25T09:46:07.735Z,5.58
2019-03-25T09:47:07.696Z,5.58
2019-03-25T09:48:07.683Z,5.67
2019-03-25T09:49:07.671Z,5.65
2019-03-25T09:50:07.675Z,5.77
2019-03-25T09:51:07.678Z,5.87
2019-03-25T09:52:07.640Z,6.21
2019-03-25T09:53:07.624Z,6.09
2019-03-25T09:54:07.614Z,6.38
2019-03-25T09:55:07.608Z,6.52
2019-03-25T09:56:07.621Z,6.57
2019-03-25T09:57:07.582Z,6.70
2019-03-25T09:58:07.578Z,6.64
2019-03-25T09:59:07.559Z,6.88
2019-03-25T10:00:07.553Z,6.75
2019-03-25T10:01:07.565Z,6.67
2019-03-25T10:02:07.546Z,6.74
2019-03-25T10:03:07.519Z,6.78
2019-03-25T10:04:07.503Z,6.81
2019-03-25T10:05:07.489Z,6.83
2019-03-25T10:06:07.503Z,6.86
2019-03-25T10:07:07.483Z,6.88
2019-03-25T10:08:07.469Z,6.93
2019-03-25T10:09:07.444Z,6.65
2019-03-25T10:10:07.435Z,6.73
2019-03-25T10:11:07.470Z,6.70
2019-03-25T10:12:07.409Z,6.73
2019-03-25T10:13:07.402Z,6.78
2019-03-25T10:14:07.406Z,6.88
2019-03-25T10:15:07.386Z,6.79
2019-03-25T10:16:07.390Z,6.86
2019-03-25T10:17:07.360Z,7.00
2019-03-25T10:18:07.351Z,7.19
2019-03-25T10:19:10.034Z,7.26
2019-03-25T10:20:07.320Z,7.36
2019-03-25T10:21:07.362Z,7.26
2019-03-25T10:22:07.297Z,7.28
2019-03-25T10:23:07.293Z,7.31
2019-03-25T10:24:07.282Z,7.34
2019-03-25T10:25:07.274Z,7.24
2019-03-25T10:26:07.259Z,7.15
2019-03-25T10:27:07.270Z,7.43
2019-03-25T10:28:07.237Z,7.31
2019-03-25T10:29:07.222Z,7.15
2019-03-25T10:30:07.224Z,7.36
2019-03-25T10:31:07.201Z,7.42
2019-03-25T10:32:07.333Z,7.49
2019-03-25T10:33:07.189Z,7.69
2019-03-25T10:34:07.163Z,7.73
2019-03-25T10:35:07.156Z,7.83
2019-03-25T10:36:07.140Z,7.81
2019-03-25T10:37:07.153Z,7.88
2019-03-25T10:38:18.874Z,8.04
2019-03-25T10:39:08.120Z,8.13
2019-03-25T10:40:07.096Z,8.37
2019-03-25T10:41:07.090Z,8.38
2019-03-25T10:42:07.109Z,8.65
2019-03-25T10:43:07.077Z,8.67
2019-03-25T10:44:07.052Z,8.72
2019-03-25T10:45:07.047Z,8.62
2019-03-25T10:46:07.028Z,8.56
2019-03-25T10:47:07.088Z,8.65
2019-03-25T10:48:07.015Z,8.65
2019-03-25T10:49:07.006Z,8.57
2019-03-25T10:50:06.992Z,8.67
2019-03-25T10:51:06.991Z,8.60
2019-03-25T10:52:06.964Z,8.59
2019-03-25T10:53:06.976Z,8.62
2019-03-25T10:54:06.952Z,8.50
2019-03-25T10:55:07.891Z,8.49
2019-03-25T10:56:06.919Z,8.44
2019-03-25T10:57:06.904Z,8.38
2019-03-25T10:58:06.928Z,8.52
2019-03-25T10:59:06.886Z,8.49
2019-03-25T11:00:06.873Z,8.62
2019-03-25T11:01:06.865Z,8.56
2019-03-25T11:02:06.850Z,8.68
2019-03-25T11:03:06.837Z,8.83
2019-03-25T11:04:06.847Z,8.88
2019-03-25T11:05:06.812Z,8.92
2019-03-25T11:06:06.805Z,8.92
2019-03-25T11:07:06.857Z,9.06
2019-03-25T11:08:06.784Z,9.26
2019-03-25T11:09:06.791Z,9.30
2019-03-25T11:10:06.756Z,9.27
2019-03-25T11:11:06.758Z,9.40
2019-03-25T11:12:06.734Z,9.30
2019-03-25T11:13:06.740Z,9.29
2019-03-25T11:14:06.742Z,9.40
2019-03-25T11:15:06.703Z,9.37
2019-03-25T11:16:06.694Z,9.34
2019-03-25T11:17:06.687Z,9.16
2019-03-25T11:18:06.666Z,9.08
2019-03-25T11:19:06.657Z,8.93
2019-03-25T11:20:06.670Z,8.86
2019-03-25T11:21:06.634Z,8.72
2019-03-25T11:22:06.622Z,8.80
2019-03-25T11:23:06.612Z,8.20
2019-03-25T11:24:06.636Z,7.74
2019-03-25T11:25:06.595Z,7.03
2019-03-25T11:26:06.584Z,6.70
2019-03-25T11:27:06.564Z,6.57
2019-03-25T11:28:06.554Z,6.24
2019-03-25T11:29:08.502Z,6.09
2019-03-25T11:30:06.538Z,6.13
2019-03-25T11:31:06.523Z,5.87
2019-03-25T11:32:06.515Z,5.65
2019-03-25T11:33:06.498Z,5.57
2019-03-25T11:34:06.539Z,5.55
2019-03-25T11:35:06.543Z,5.62
2019-03-25T11:36:06.466Z,5.65
2019-03-25T11:37:06.452Z,5.65
2019-03-25T11:38:06.445Z,5.69
2019-03-25T11:39:06.430Z,5.62
2019-03-25T11:40:06.458Z,5.65
2019-03-25T11:41:06.430Z,5.66
2019-03-25T11:42:06.422Z,5.79
2019-03-25T11:43:06.406Z,5.82
2019-03-25T11:44:06.382Z,5.91
2019-03-25T11:45:06.408Z,5.85
2019-03-25T11:46:06.360Z,5.84
2019-03-25T11:47:06.364Z,5.93
2019-03-25T11:48:06.330Z,5.93
2019-03-25T11:49:06.322Z,5.93
2019-03-25T11:50:06.330Z,6.05
2019-03-25T11:51:06.340Z,6.11
2019-03-25T11:52:06.290Z,6.15
2019-03-25T11:53:06.275Z,6.16
2019-03-25T11:54:06.279Z,6.42
2019-03-25T11:55:06.297Z,6.64
2019-03-25T11:56:06.267Z,6.64
2019-03-25T11:57:06.230Z,6.97
2019-03-25T11:58:06.220Z,7.19
2019-03-25T11:59:06.212Z,7.15
2019-03-25T12:00:06.234Z,7.37
2019-03-25T12:01:06.185Z,7.42
2019-03-25T12:02:06.175Z,7.61
2019-03-25T12:03:06.167Z,7.73
2019-03-25T12:04:06.149Z,7.94
2019-03-25T12:05:06.134Z,7.95
2019-03-25T12:06:06.162Z,7.98
2019-03-25T12:07:06.133Z,8.06
2019-03-25T12:08:06.115Z,8.16
2019-03-25T12:09:06.098Z,8.47
2019-03-25T12:10:06.082Z,8.47
2019-03-25T12:11:06.102Z,8.63
2019-03-25T12:12:06.060Z,8.81
2019-03-25T12:13:06.051Z,8.81
2019-03-25T12:14:06.039Z,8.99
2019-03-25T12:15:06.033Z,9.12
2019-03-25T12:16:06.044Z,9.08
2019-03-25T12:17:06.007Z,9.12
2019-03-25T12:18:05.994Z,9.08
2019-03-25T12:19:05.979Z,9.06
2019-03-25T12:20:05.973Z,9.15
2019-03-25T12:21:05.997Z,9.12
2019-03-25T12:22:05.954Z,9.14
2019-03-25T12:23:05.939Z,9.29
2019-03-25T12:24:05.929Z,9.30
2019-03-25T12:25:05.941Z,9.44
2019-03-25T12:26:05.954Z,9.67
2019-03-25T12:27:05.889Z,9.70
2019-03-25T12:28:05.898Z,9.73
2019-03-25T12:29:05.875Z,9.54
2019-03-25T12:30:05.873Z,9.83
2019-03-25T12:31:05.881Z,9.75
2019-03-25T12:32:05.834Z,9.84
2019-03-25T12:33:05.825Z,9.99
2019-03-25T12:34:05.860Z,9.98
2019-03-25T12:35:05.806Z,10.10
2019-03-25T12:36:05.878Z,10.09
2019-03-25T12:37:05.806Z,10.14
2019-03-25T12:38:05.767Z,10.05
2019-03-25T12:39:05.759Z,9.96
2019-03-25T12:40:07.875Z,9.84
2019-03-25T12:41:05.766Z,9.73
2019-03-25T12:42:05.749Z,9.66
2019-03-25T12:43:05.728Z,9.66
2019-03-25T12:44:05.781Z,9.72
2019-03-25T12:46:06.816Z,9.59
2019-03-25T12:47:05.694Z,9.65
2019-03-25T12:48:05.674Z,9.66
2019-03-25T12:49:05.660Z,9.66
2019-03-25T12:50:05.633Z,9.62
2019-03-25T12:51:05.628Z,9.63
2019-03-25T12:52:05.629Z,9.57
2019-03-25T12:53:05.600Z,9.62
2019-03-25T12:54:05.603Z,9.65
2019-03-25T12:55:05.580Z,9.47
2019-03-25T12:56:05.566Z,9.24
2019-03-25T12:57:05.592Z,9.06
2019-03-25T12:58:07.472Z,8.56
2019-03-25T12:59:05.554Z,8.34
2019-03-25T13:00:05.519Z,8.19
2019-03-25T13:01:05.512Z,8.24
2019-03-25T13:02:05.497Z,8.39
2019-03-25T13:03:05.506Z,8.39
2019-03-25T13:04:05.478Z,8.50
2019-03-25T13:05:05.462Z,8.26
2019-03-25T13:06:05.453Z,8.13
2019-03-25T13:07:05.473Z,8.23
2019-03-25T13:08:05.439Z,8.13
2019-03-25T13:09:05.433Z,8.13
2019-03-25T13:10:05.463Z,8.19
2019-03-25T13:11:05.396Z,8.17
2019-03-25T13:12:05.383Z,8.02
2019-03-25T13:13:05.411Z,7.96
2019-03-25T13:14:05.362Z,7.92
2019-03-25T13:15:05.358Z,7.76
2019-03-25T13:16:05.344Z,7.61
2019-03-25T13:17:05.330Z,7.37
2019-03-25T13:18:05.360Z,7.39
2019-03-25T13:19:05.307Z,7.39